Date,TemperatureHighF,TemperatureAvgF,TemperatureLowF,DewpointHighF,DewpointAvgF,DewpointLowF,HumidityHigh,HumidityAvg,HumidityLow,PressureMaxIn,PressureMinIn,WindSpeedMaxMPH,WindSpeedAvgMPH,GustSpeedMaxMPH,PrecipitationSumIn
2013-1-1,51,41,34,38,34,30,98,78,46,30.16,30.07,14,0,14,0.00
2013-1-2,51,40,32,40,34,26,95,77,51,30.12,30.02,7,0,7,0.00
2013-1-3,51,39,32,43,36,31,96,88,61,30.16,30.04,5,0,5,0.01
2013-1-4,52,41,34,44,38,33,98,90,69,30.17,30.06,4,0,5,0.00
2013-1-5,50,43,35,45,42,34,98,94,84,30.13,29.94,6,0,6,0.30
2013-1-6,50,44,37,47,43,36,98,95,84,30.06,29.94,6,0,6,0.31
2013-1-7,56,45,37,52,44,36,99,94,80,30.14,30.02,7,0,7,0.00
2013-1-8,56,46,40,52,45,40,99,96,89,30.11,30.01,4,0,4,0.00
2013-1-9,50,43,37,49,43,36,99,97,90,30.03,29.84,13,0,14,0.03
2013-1-10,47,40,32,38,34,31,98,83,61,30.06,29.93,12,1,13,0.01
2013-1-11,48,40,32,42,35,30,97,83,65,30.13,29.99,13,0,14,0.01
2013-1-12,45,37,30,36,31,28,93,78,50,30.12,30.02,6,0,6,0.00
2013-1-13,46,37,26,36,26,10,92,69,23,30.15,30.06,12,0,15,0.00
2013-1-14,49,41,34,34,24,9,90,55,24,30.27,30.11,11,0,11,0.00
2013-1-15,48,38,32,38,33,30,93,84,61,30.36,30.27,4,0,4,0.00
2013-1-16,52,40,31,42,35,30,97,85,61,30.32,30.14,3,0,3,0.00
2013-1-17,54,42,33,45,38,32,100,87,66,30.15,30.04,5,0,5,0.00
2013-1-18,56,43,34,45,38,32,96,82,56,30.11,30.01,4,0,4,0.00
2013-1-19,64,47,38,43,36,27,88,68,27,30.12,30.03,5,0,6,0.00
2013-1-20,58,45,36,42,36,30,84,72,49,30.11,30.00,3,0,3,0.00
2013-1-21,58,46,35,44,37,30,89,71,49,30.05,29.96,6,0,7,0.00
2013-1-22,59,48,37,45,39,32,88,72,50,29.99,29.88,5,0,5,0.00
2013-1-23,52,50,48,49,45,40,100,84,66,29.96,29.83,4,0,5,0.13
2013-1-24,57,51,48,56,50,47,99,98,93,30.06,29.94,4,0,4,0.14
2013-1-25,61,53,47,56,51,47,99,94,78,30.06,29.91,6,0,7,0.00
2013-1-26,54,48,40,48,42,37,99,83,56,29.94,29.83,10,0,10,0.00
2013-1-27,50,42,32,39,36,31,100,80,49,30.05,29.92,11,0,12,0.00
2013-1-28,55,45,36,43,39,34,95,79,57,30.15,30.03,10,0,10,0.00
2013-1-29,56,46,36,45,40,34,95,81,56,30.23,30.14,7,0,7,0.00
2013-1-30,61,51,42,50,44,39,96,78,47,30.21,30.12,10,0,10,0.00
2013-1-31,62,48,39,50,44,38,100,87,57,30.17,30.06,6,0,6,0.00
2013-2-1,64,50,40,50,44,39,99,83,45,30.08,29.99,5,0,6,0.00
2013-2-2,56,46,40,51,44,40,98,92,81,30.18,30.08,5,0,5,0.00
2013-2-3,56,47,40,50,45,39,98,93,78,30.13,30.01,6,0,6,0.01
2013-2-4,56,46,38,50,44,37,100,93,78,30.05,29.94,5,0,5,0.01
2013-2-5,57,47,40,50,44,38,97,89,71,30.03,29.91,12,0,12,0.00
2013-2-6,54,43,34,45,39,34,98,86,58,30.07,29.98,8,0,8,0.00
2013-2-7,51,44,35,46,40,34,98,88,56,30.04,29.86,10,0,10,0.02
2013-2-8,53,43,34,42,36,27,98,78,43,29.88,29.81,10,0,11,0.02
2013-2-9,57,44,34,38,31,24,85,63,30,29.96,29.87,9,0,9,0.00
2013-2-10,59,45,34,46,36,30,87,73,44,29.99,29.88,7,0,9,0.00
2013-2-11,64,50,40,41,34,29,87,59,28,30.09,29.95,10,0,10,0.00
2013-2-12,61,46,38,48,41,35,98,83,46,30.22,30.09,7,0,7,0.00
2013-2-13,61,47,38,48,42,37,98,83,48,30.21,30.08,6,0,7,0.00
2013-2-14,66,51,40,52,45,38,96,81,54,30.12,30.03,6,0,6,0.00
2013-2-15,67,53,43,50,43,37,91,70,40,30.13,30.06,5,0,5,0.00
2013-2-16,66,52,42,50,44,40,94,77,50,30.11,29.91,4,0,4,0.00
2013-2-17,60,47,38,48,40,34,98,80,56,29.92,29.85,7,0,9,0.00
2013-2-18,51,43,35,44,39,33,97,86,72,29.89,29.80,11,0,11,0.00
2013-2-19,46,40,32,43,37,31,97,88,67,29.83,29.61,11,0,11,0.34
2013-2-20,55,43,31,41,36,30,97,77,48,29.93,29.73,13,0,13,0.00
2013-2-21,58,45,33,41,35,26,97,71,31,30.04,29.92,13,0,13,0.00
2013-2-22,61,48,37,45,39,34,94,76,39,30.11,30.03,11,0,11,0.00
2013-2-23,56,48,42,44,36,29,92,65,36,30.13,30.03,18,1,18,0.00
2013-2-24,64,49,39,41,29,15,78,50,16,30.13,30.03,11,0,11,0.00
2013-2-25,62,48,36,46,39,33,94,73,39,30.14,30.03,9,0,9,0.00
2013-2-26,66,50,37,41,33,19,94,58,19,30.08,30.01,12,0,12,0.00
2013-2-27,65,51,37,45,38,31,82,63,33,30.22,30.06,7,0,7,0.00
2013-2-28,66,55,47,55,49,43,96,81,60,30.30,30.21,11,0,12,0.00
2013-3-1,70,55,44,56,50,44,99,84,53,30.30,30.11,7,0,7,0.00
2013-3-2,70,58,49,55,51,47,100,79,53,30.11,29.92,9,0,9,0.00
2013-3-3,63,52,42,52,47,40,96,84,62,29.94,29.88,13,0,13,0.00
2013-3-4,55,46,39,50,43,37,98,92,77,30.02,29.92,10,0,10,0.00
2013-3-5,54,46,37,47,42,35,97,87,70,29.94,29.65,11,1,11,0.27
2013-3-6,52,46,37,48,42,36,100,87,62,29.93,29.66,13,1,14,0.57
2013-3-7,54,45,36,44,39,34,98,81,56,29.87,29.74,7,0,7,0.00
2013-3-8,60,47,34,47,40,33,98,78,42,29.90,29.71,11,0,12,0.00
2013-3-9,67,50,36,48,40,30,97,75,26,30.18,29.90,13,0,13,0.00
2013-3-10,68,52,41,46,40,34,90,64,35,30.21,30.12,10,0,11,0.00
2013-3-11,70,52,41,48,41,34,86,67,40,30.13,29.97,6,0,7,0.00
2013-3-12,72,55,42,57,48,41,98,79,54,30.03,29.94,7,0,7,0.00
2013-3-13,74,58,45,58,51,43,98,80,49,30.03,29.93,8,0,8,0.00
2013-3-14,71,57,47,58,50,44,98,80,48,30.03,29.94,9,0,10,0.00
2013-3-15,72,56,44,56,47,42,93,75,45,29.99,29.89,10,0,10,0.00
2013-3-16,71,58,44,52,44,36,98,66,29,29.97,29.87,14,1,14,0.00
2013-3-17,67,54,41,49,42,37,92,66,35,30.01,29.91,10,1,11,0.00
2013-3-18,67,52,40,50,44,38,98,75,48,29.97,29.89,9,0,9,0.00
2013-3-19,62,51,43,50,44,40,95,79,49,30.00,29.91,6,0,6,0.06
2013-3-20,57,51,45,56,50,44,98,96,93,30.00,29.92,5,0,5,0.55
2013-3-21,62,49,36,49,44,35,98,82,54,29.99,29.88,10,0,10,0.01
2013-3-22,65,51,37,44,35,19,96,61,21,29.99,29.90,13,0,13,0.00
2013-3-23,66,51,37,45,38,32,85,65,34,30.01,29.91,9,0,10,0.00
2013-3-24,69,53,39,52,43,36,95,72,41,29.95,29.83,9,0,9,0.00
2013-3-25,58,47,38,49,43,37,98,86,63,29.88,29.81,11,1,12,0.00
2013-3-26,65,50,40,51,44,39,97,82,57,29.86,29.80,11,0,12,0.00
2013-3-27,59,51,42,53,48,40,98,90,77,29.88,29.81,7,0,7,0.00
2013-3-28,61,53,47,55,50,46,98,91,76,29.96,29.87,6,0,6,0.00
2013-3-29,75,58,43,57,51,42,99,79,41,29.96,29.88,10,0,10,0.00
2013-3-30,65,56,51,57,52,49,96,86,73,29.93,29.86,7,0,7,0.09
2013-3-31,64,55,50,57,53,49,98,93,68,29.94,29.86,9,0,10,0.29
2013-4-1,59,54,47,56,52,46,98,94,87,30.02,29.91,6,0,6,0.31
2013-4-2,66,52,44,57,50,43,99,90,72,30.05,29.96,9,0,10,0.01
2013-4-3,72,55,43,58,50,43,99,86,59,30.00,29.85,9,0,9,0.00
2013-4-4,58,53,49,58,52,47,100,96,91,29.98,29.84,7,0,7,0.08
2013-4-5,61,54,49,56,52,48,100,93,77,30.05,29.98,11,0,11,0.18
2013-4-6,65,55,50,57,52,49,98,91,70,30.05,30.00,11,0,11,0.00
2013-4-7,60,53,49,58,50,46,98,91,75,30.04,29.67,13,1,13,0.04
2013-4-8,66,54,44,47,38,20,93,60,18,29.91,29.66,25,2,25,0.02
2013-4-9,74,62,52,49,36,20,72,42,15,29.98,29.91,15,1,15,0.00
2013-4-10,82,67,51,60,50,38,83,55,33,30.04,29.89,12,1,12,0.00
2013-4-11,72,60,46,55,49,43,93,69,38,29.90,29.70,18,1,18,0.00
2013-4-12,73,56,42,56,47,41,100,74,42,29.78,29.68,10,0,10,0.00
2013-4-13,72,57,44,55,45,39,93,67,43,29.76,29.66,13,1,14,0.00
2013-4-14,70,55,41,47,40,31,87,60,31,29.80,29.70,18,2,18,0.00
2013-4-15,59,50,41,44,38,33,91,66,40,29.83,29.71,19,2,19,0.00
2013-4-16,66,52,37,41,31,20,86,50,18,30.04,29.83,12,1,12,0.00
2013-4-17,68,58,46,38,29,20,65,35,17,30.14,30.04,13,1,15,0.00
2013-4-18,75,60,47,52,39,32,74,48,26,30.12,30.05,10,0,10,0.00
2013-4-19,77,62,46,58,48,41,93,64,39,30.09,29.93,12,1,14,0.00
2013-4-20,78,61,46,54,46,37,90,61,24,29.97,29.85,12,0,12,0.00
2013-4-21,82,63,48,58,48,44,90,62,31,29.89,29.80,9,0,9,0.00
2013-4-22,87,69,54,57,47,29,78,51,13,29.82,29.72,10,0,10,0.00
2013-4-23,81,67,47,50,35,17,88,36,12,29.79,29.72,12,1,17,0.00
2013-4-24,65,51,42,54,46,40,97,84,62,29.82,29.69,14,1,14,0.00
2013-4-25,62,52,46,53,48,45,95,85,67,29.99,29.82,13,1,13,0.00
2013-4-26,70,54,46,57,49,44,96,85,61,30.09,29.99,11,0,11,0.00
2013-4-27,78,57,46,61,50,45,98,81,45,30.09,29.93,6,0,6,0.00
2013-4-28,83,62,46,62,53,44,98,75,45,29.93,29.75,8,0,9,0.00
2013-4-29,86,69,54,60,53,49,86,59,33,29.76,29.63,11,0,12,0.00
2013-4-30,85,68,48,52,34,0,93,43,5,29.73,29.65,17,1,19,0.00
2013-5-1,84,71,58,44,25,10,51,20,9,29.94,29.70,16,1,17,0.00
2013-5-2,88,72,55,46,36,16,51,28,13,30.01,29.94,10,1,10,0.00
2013-5-3,89,67,50,54,42,34,70,43,20,29.94,29.65,10,0,10,0.00
2013-5-4,87,70,53,53,43,27,90,44,13,29.65,29.42,14,1,14,0.00
2013-5-5,64,57,53,52,50,48,88,78,63,29.68,29.47,8,0,8,0.00
2013-5-6,68,57,48,56,51,46,97,81,58,29.84,29.68,7,0,7,0.00
2013-5-7,70,58,50,56,52,48,97,81,53,29.90,29.83,10,1,12,0.00
2013-5-8,63,54,48,55,50,46,96,89,71,30.00,29.89,15,1,15,0.00
2013-5-9,67,55,45,55,50,44,98,85,63,30.03,29.95,11,1,11,0.00
2013-5-10,76,59,48,61,52,46,97,81,55,30.04,29.95,10,0,10,0.00
2013-5-11,86,64,45,65,54,44,98,75,44,30.00,29.91,11,0,11,0.00
2013-5-12,81,63,47,62,52,45,98,72,44,29.99,29.88,13,1,13,0.00
2013-5-13,82,64,46,61,53,45,98,70,42,29.93,29.79,11,1,12,0.00
2013-5-14,83,65,50,58,51,45,94,64,35,29.82,29.74,11,0,11,0.00
2013-5-15,75,60,45,53,47,42,93,65,38,29.88,29.81,11,1,11,0.00
2013-5-16,70,60,48,57,50,46,90,72,50,29.87,29.80,15,1,15,0.00
2013-5-17,69,55,42,51,45,40,97,72,44,29.93,29.82,13,1,13,0.00
2013-5-18,78,61,42,53,47,40,97,64,32,29.98,29.92,15,1,17,0.00
2013-5-19,84,64,46,52,45,33,91,56,18,29.98,29.85,12,1,12,0.00
2013-5-20,87,71,51,49,44,37,84,41,19,29.86,29.75,17,1,17,0.00
2013-5-21,73,60,50,48,44,37,88,57,30,29.84,29.74,13,2,18,0.00
2013-5-22,68,55,39,42,35,27,75,49,25,29.89,29.75,13,1,13,0.00
2013-5-23,69,56,40,46,41,37,90,61,38,29.86,29.76,14,1,15,0.00
2013-5-24,73,56,39,47,43,37,95,64,36,29.85,29.77,11,1,11,0.00
2013-5-25,72,58,42,49,45,39,92,66,40,29.87,29.80,12,1,12,0.00
2013-5-26,70,58,46,54,49,44,97,75,54,29.96,29.87,16,1,17,0.00
2013-5-27,62,55,46,57,51,44,96,88,75,29.96,29.85,9,0,9,0.17
2013-5-28,72,60,55,59,55,52,98,83,59,29.86,29.78,12,0,12,0.20
2013-5-29,74,62,55,57,53,48,89,72,52,29.82,29.74,15,1,15,0.00
2013-5-30,79,63,45,51,47,41,95,60,27,29.84,29.78,13,1,13,0.00
2013-5-31,88,63,48,54,48,44,92,64,26,29.87,29.80,13,1,14,0.00